Time;durP1;ratioP1;P1;durP2;ratioP2;P2;SDS_P1;SDS_P2;PMS_P1;PMS_P2;Temp;Humidity;BMP_temperature;BMP_pressure;BME280_temperature;BME280_humidity;BME280_pressure;Samples;Min_cycle;Max_cycle;Signal;HPM_P1;HPM_P2
2021/12/17 00:06:59;;;;;;;15.25;9.65;;;;;;;1.92;72.58;96177.31;5008271;28;20424;-84
2021/12/17 00:09:25;;;;;;;15.27;9.77;;;;;;;1.76;73.34;96176.69;5025320;28;20025;-83
2021/12/17 00:11:50;;;;;;;14.75;9.60;;;;;;;1.75;73.77;96185.56;5025708;28;20033;-82
2021/12/17 00:14:25;;;;;;;14.30;9.18;;;;;;;1.81;73.15;96185.16;5025884;28;20018;-85
2021/12/17 00:16:51;;;;;;;15.68;9.88;;;;;;;1.91;73.25;96193.31;5025307;28;20030;-85
2021/12/17 00:49:11;;;;;;;17.13;10.65;;;;;;;1.77;74.05;96191.59;5027147;28;20036;-85
2021/12/17 00:54:29;;;;;;;17.60;10.38;;;;;;;1.95;73.39;96178.94;5027649;28;20052;-84
2021/12/17 00:56:55;;;;;;;15.63;9.82;;;;;;;2.00;72.70;96179.44;5027265;28;20566;-86
2021/12/17 00:59:21;;;;;;;16.13;9.73;;;;;;;2.07;72.22;96179.88;5026601;28;20060;-85
2021/12/17 01:01:46;;;;;;;14.82;8.93;;;;;;;1.87;72.81;96176.78;5025673;28;20029;-85
2021/12/17 01:04:12;;;;;;;16.38;10.10;;;;;;;1.85;73.14;96184.84;5026410;28;20029;-84
2021/12/17 01:06:38;;;;;;;14.30;9.55;;;;;;;1.87;72.70;96189.19;5027007;28;20026;-85
2021/12/17 01:09:04;;;;;;;15.80;9.15;;;;;;;1.84;72.92;96183.16;5026529;28;20415;-84
2021/12/17 01:11:29;;;;;;;16.67;9.80;;;;;;;1.61;73.33;96174.13;5026804;28;20075;-84
2021/12/17 01:13:55;;;;;;;13.02;8.55;;;;;;;1.75;73.35;96177.63;5010176;28;20534;-85
2021/12/17 01:16:20;;;;;;;13.73;9.27;;;;;;;1.74;72.68;96176.81;5030442;28;20476;-84
2021/12/17 01:35:27;;;;;;;12.85;8.07;;;;;;;1.78;70.97;96156.25;5029289;28;20111;-85
2021/12/17 01:40:49;;;;;;;14.15;8.73;;;;;;;1.95;70.29;96152.47;5030218;28;20068;-84
2021/12/17 01:43:14;;;;;;;15.10;8.13;;;;;;;2.01;69.77;96148.56;5016807;28;20033;-86
2021/12/17 01:45:41;;;;;;;11.30;8.05;;;;;;;2.02;69.91;96147.59;5036524;28;20056;-84
2021/12/17 01:48:10;;;;;;;11.02;7.03;;;;;;;2.17;69.28;96146.53;5028873;28;20032;-84
2021/12/17 02:01:14;;;;;;;11.23;6.82;;;;;;;2.25;68.37;96150.44;5042580;28;20043;-84
2021/12/17 02:03:39;;;;;;;10.40;6.57;;;;;;;2.20;68.17;96148.13;5041440;28;20116;-84
2021/12/17 02:06:05;;;;;;;11.43;6.72;;;;;;;2.25;68.51;96148.66;5029942;28;20084;-86
2021/12/17 02:08:32;;;;;;;11.35;6.57;;;;;;;1.92;69.22;96147.41;5031122;28;20480;-86
2021/12/17 02:22:05;;;;;;;10.45;6.32;;;;;;;2.08;69.55;96145.38;5034112;28;20474;-87
2021/12/17 02:32:41;;;;;;;11.50;7.38;;;;;;;1.92;69.93;96131.53;5028534;28;20091;-87
2021/12/17 02:37:36;;;;;;;12.68;7.55;;;;;;;2.07;69.42;96134.88;5011110;28;20163;-86
2021/12/17 02:45:40;;;;;;;13.40;7.35;;;;;;;2.18;70.06;96126.19;5026401;28;20032;-83
2021/12/17 02:48:10;;;;;;;14.18;8.35;;;;;;;2.25;70.18;96127.47;5027598;28;20068;-83
2021/12/17 02:50:37;;;;;;;11.85;7.30;;;;;;;2.31;69.95;96129.69;5027418;28;20475;-85
2021/12/17 02:53:07;;;;;;;11.27;6.82;;;;;;;2.37;70.07;96131.03;5028679;28;20036;-86
2021/12/17 02:55:33;;;;;;;13.52;8.25;;;;;;;2.28;70.30;96135.19;5028642;28;20117;-86
2021/12/17 02:57:59;;;;;;;12.55;7.80;;;;;;;2.33;70.57;96130.44;4993211;28;20492;-86
2021/12/17 03:00:24;;;;;;;12.57;8.20;;;;;;;2.14;71.19;96136.16;5029336;28;20060;-83
2021/12/17 03:02:50;;;;;;;12.43;7.82;;;;;;;2.20;71.17;96129.59;5010317;28;20029;-85
2021/12/17 03:05:16;;;;;;;15.88;9.25;;;;;;;2.14;71.59;96125.59;5011333;28;20026;-84
2021/12/17 03:07:44;;;;;;;13.77;8.68;;;;;;;2.07;71.94;96130.44;5029422;28;20021;-84
2021/12/17 03:10:11;;;;;;;13.57;8.20;;;;;;;2.16;72.43;96128.94;4995652;28;20045;-87
2021/12/17 03:12:44;;;;;;;14.02;8.05;;;;;;;2.07;72.33;96121.66;5031091;28;20108;-84
2021/12/17 03:15:19;;;;;;;14.40;8.80;;;;;;;2.01;72.94;96130.88;5028082;28;20033;-85
2021/12/17 03:18:36;;;;;;;14.52;8.82;;;;;;;2.15;72.80;96126.41;5028618;28;20283;-86
2021/12/17 03:23:40;;;;;;;14.90;9.13;;;;;;;2.34;72.52;96125.97;5012665;28;20036;-86
2021/12/17 03:26:08;;;;;;;16.20;9.30;;;;;;;2.15;73.40;96126.41;5028361;28;20032;-84
2021/12/17 03:28:33;;;;;;;13.52;8.45;;;;;;;2.41;72.78;96123.72;5026883;28;20052;-86
2021/12/17 03:30:59;;;;;;;13.73;8.77;;;;;;;2.03;74.50;96126.31;5027727;28;20451;-84
2021/12/17 03:33:25;;;;;;;15.23;9.25;;;;;;;2.07;74.72;96119.88;5027283;28;20021;-84
2021/12/17 03:35:50;;;;;;;16.67;10.32;;;;;;;2.17;75.14;96121.88;5035308;28;20052;-88
2021/12/17 03:38:16;;;;;;;17.08;10.40;;;;;;;2.12;75.41;96116.03;5014567;28;20022;-85
2021/12/17 03:40:42;;;;;;;14.98;9.93;;;;;;;2.12;75.89;96119.53;5009411;28;20113;-84
2021/12/17 03:43:13;;;;;;;19.88;10.07;;;;;;;2.21;75.82;96112.75;5027622;28;20116;-85
2021/12/17 03:45:39;;;;;;;14.90;9.23;;;;;;;2.16;76.44;96106.94;5026733;28;20044;-84
2021/12/17 03:48:05;;;;;;;14.52;9.27;;;;;;;2.19;75.86;96107.56;5028451;28;20022;-86
2021/12/17 03:50:34;;;;;;;15.77;9.38;;;;;;;2.09;76.65;96102.09;5040798;28;20029;-85
2021/12/17 03:53:00;;;;;;;13.98;8.95;;;;;;;2.19;76.63;96110.19;5026423;28;20029;-86
2021/12/17 03:55:25;;;;;;;14.88;9.18;;;;;;;2.21;76.30;96100.38;5027081;28;20083;-85
2021/12/17 03:57:51;;;;;;;16.00;10.25;;;;;;;2.07;77.36;96106.63;5044151;28;20032;-87
2021/12/17 04:00:16;;;;;;;15.85;10.02;;;;;;;2.20;76.65;96092.53;5039821;28;20029;-86
2021/12/17 04:02:42;;;;;;;13.80;8.70;;;;;;;2.18;76.87;96089.13;5030604;28;20035;-88
2021/12/17 04:05:07;;;;;;;15.70;10.45;;;;;;;2.17;76.75;96093.59;5030765;28;20025;-89
2021/12/17 04:07:33;;;;;;;13.18;9.23;;;;;;;2.04;77.42;96093.63;5029581;28;20475;-89
2021/12/17 04:09:58;;;;;;;15.75;9.90;;;;;;;2.05;77.85;96092.66;5028637;28;20526;-87
2021/12/17 04:12:37;;;;;;;13.80;8.93;;;;;;;2.07;77.40;96096.06;5027735;28;20468;-85
2021/12/17 04:15:04;;;;;;;12.50;8.38;;;;;;;2.00;78.13;96083.38;5027666;28;20043;-86
2021/12/17 04:17:38;;;;;;;11.43;7.88;;;;;;;2.05;78.08;96071.50;5009487;28;20121;-83
2021/12/17 04:20:04;;;;;;;12.55;7.70;;;;;;;2.00;77.93;96080.72;5025802;28;20029;-85
2021/12/17 04:22:29;;;;;;;13.30;8.60;;;;;;;2.12;78.16;96065.75;5026644;28;20025;-85
2021/12/17 04:24:55;;;;;;;13.57;9.52;;;;;;;2.08;77.39;96057.22;5026248;28;20029;-84
2021/12/17 04:27:20;;;;;;;12.98;8.02;;;;;;;2.20;77.24;96066.06;5026507;28;20032;-85
2021/12/17 04:29:45;;;;;;;15.23;8.95;;;;;;;2.14;77.67;96050.63;5026128;28;20033;-84
2021/12/17 04:32:11;;;;;;;13.63;8.63;;;;;;;2.10;77.84;96050.84;5026168;28;20585;-84
2021/12/17 04:34:36;;;;;;;19.42;10.32;;;;;;;2.12;77.90;96048.09;5026474;28;20036;-85
2021/12/17 04:37:02;;;;;;;13.48;8.85;;;;;;;2.10;77.64;96052.63;5025977;28;20072;-86
2021/12/17 04:39:28;;;;;;;13.73;8.93;;;;;;;2.21;77.28;96046.56;5026708;28;20034;-85
2021/12/17 04:41:58;;;;;;;14.38;8.60;;;;;;;2.29;76.31;96044.22;5025913;28;20022;-83
2021/12/17 04:57:51;;;;;;;11.77;7.78;;;;;;;2.04;76.89;96051.28;5030114;28;20107;-83
2021/12/17 05:00:24;;;;;;;9.57;6.95;;;;;;;2.12;76.57;96053.38;5030522;28;20052;-88
2021/12/17 05:02:52;;;;;;;10.88;7.57;;;;;;;2.12;76.68;96055.16;5012735;28;20025;-86
2021/12/17 05:05:20;;;;;;;11.75;7.30;;;;;;;2.09;77.03;96050.94;5029885;28;20053;-86
2021/12/17 05:07:54;;;;;;;11.13;7.53;;;;;;;2.14;77.10;96055.91;5029573;28;20114;-86
2021/12/17 05:10:30;;;;;;;11.23;7.53;;;;;;;2.14;77.19;96051.47;5030000;28;20049;-86
2021/12/17 05:18:26;;;;;;;11.30;7.15;;;;;;;2.00;77.48;96049.78;5029357;28;20247;-83
2021/12/17 05:20:57;;;;;;;11.52;6.97;;;;;;;2.19;77.25;96051.16;5028857;28;20072;-82
2021/12/17 05:23:28;;;;;;;9.50;6.28;;;;;;;2.31;76.83;96055.56;5029312;28;20025;-84
2021/12/17 05:25:54;;;;;;;7.35;5.32;;;;;;;2.37;76.26;96056.06;5011748;28;20060;-84
2021/12/17 05:28:20;;;;;;;6.43;4.93;;;;;;;2.41;76.78;96049.59;5030667;28;20037;-85
2021/12/17 05:30:47;;;;;;;7.45;5.55;;;;;;;2.30;77.00;96053.03;5028403;28;20018;-83
2021/12/17 05:33:13;;;;;;;7.80;5.70;;;;;;;2.20;77.40;96047.53;5026217;28;20044;-83
2021/12/17 05:35:38;;;;;;;7.55;5.38;;;;;;;2.32;77.25;96041.34;5025701;28;20026;-83
2021/12/17 05:38:04;;;;;;;8.30;5.82;;;;;;;2.43;76.72;96040.59;5009022;28;20423;-82
2021/12/17 05:40:29;;;;;;;7.75;5.32;;;;;;;2.45;76.58;96043.13;5025246;28;20574;-82
2021/12/17 05:42:59;;;;;;;8.15;4.80;;;;;;;2.43;76.23;96034.44;5019133;28;20033;-84
2021/12/17 05:45:47;;;;;;;8.80;5.20;;;;;;;2.44;76.65;96031.69;5010520;28;20091;-85
2021/12/17 05:48:14;;;;;;;8.15;5.55;;;;;;;2.41;76.64;96028.41;5022792;28;20033;-84
2021/12/17 05:50:41;;;;;;;8.65;5.45;;;;;;;2.35;76.63;96035.00;4976161;28;20021;-82
2021/12/17 05:53:07;;;;;;;7.72;5.80;;;;;;;2.35;77.17;96042.94;5029615;28;20076;-86
2021/12/17 05:55:32;;;;;;;8.63;6.57;;;;;;;2.38;77.29;96045.38;5010793;28;20036;-80
2021/12/17 05:57:58;;;;;;;8.85;6.80;;;;;;;2.27;77.42;96048.81;5008745;28;20099;-84
2021/12/17 06:00:24;;;;;;;7.55;5.38;;;;;;;2.45;76.29;96059.03;5021544;28;20026;-84
2021/12/17 06:02:49;;;;;;;7.40;4.30;;;;;;;2.45;75.93;96056.38;5007238;28;20183;-83
2021/12/17 06:05:15;;;;;;;6.95;4.45;;;;;;;2.50;75.35;96056.88;5007084;28;20025;-82
2021/12/17 06:07:40;;;;;;;5.35;4.43;;;;;;;2.57;75.31;96058.13;5011673;28;20025;-84
2021/12/17 06:10:08;;;;;;;6.57;5.63;;;;;;;2.64;74.65;96066.47;5009143;28;20083;-82
2021/12/17 06:12:34;;;;;;;5.88;4.70;;;;;;;2.61;74.73;96069.34;5024876;28;20038;-85
2021/12/17 06:15:01;;;;;;;5.75;4.15;;;;;;;2.55;74.48;96067.97;5027022;28;20050;-86
2021/12/17 06:17:26;;;;;;;5.32;4.00;;;;;;;2.57;74.29;96079.31;5022909;28;20026;-82
2021/12/17 06:19:52;;;;;;;6.35;4.28;;;;;;;2.58;74.98;96073.03;5022687;28;20014;-82
2021/12/17 06:22:18;;;;;;;7.85;5.38;;;;;;;2.59;74.60;96065.97;5033996;28;20036;-82
2021/12/17 06:24:45;;;;;;;6.93;4.57;;;;;;;2.63;73.89;96056.81;5035838;28;20064;-79
2021/12/17 06:27:14;;;;;;;7.93;5.63;;;;;;;2.58;75.39;96059.81;5027931;28;20115;-79
2021/12/17 06:29:40;;;;;;;7.25;5.32;;;;;;;2.45;75.18;96061.66;5004913;28;20037;-82
2021/12/17 06:32:06;;;;;;;8.38;5.60;;;;;;;2.45;76.00;96064.31;5026764;28;20528;-83
2021/12/17 06:34:31;;;;;;;7.38;5.30;;;;;;;2.50;75.39;96064.81;5025802;28;20112;-84
2021/12/17 06:36:57;;;;;;;5.90;4.80;;;;;;;2.60;75.95;96059.69;5009548;28;20401;-86
2021/12/17 06:39:24;;;;;;;6.00;4.47;;;;;;;2.52;75.48;96059.41;5023514;28;20042;-83
2021/12/17 06:41:49;;;;;;;7.78;4.97;;;;;;;2.42;76.17;96051.31;5005179;28;20107;-83
2021/12/17 06:44:19;;;;;;;7.28;4.60;;;;;;;2.51;75.64;96050.63;5024408;28;20030;-79
2021/12/17 06:54:50;;;;;;;7.88;4.85;;;;;;;2.65;75.38;96059.34;5026746;28;20171;-81
2021/12/17 07:10:51;;;;;;;8.70;6.13;;;;;;;2.74;75.60;96056.03;5025267;28;20199;-80
2021/12/17 07:21:30;;;;;;;9.05;6.68;;;;;;;2.66;78.10;96066.38;5026267;28;20049;-79
2021/12/17 07:34:40;;;;;;;10.60;7.97;;;;;;;2.66;77.81;96042.53;5010691;28;20083;-80
2021/12/17 07:39:31;;;;;;;13.35;9.05;;;;;;;2.67;78.34;96038.91;5008593;28;20527;-80
2021/12/17 07:41:57;;;;;;;13.35;7.57;;;;;;;2.64;78.81;96031.19;5012093;28;20028;-81
2021/12/17 07:44:22;;;;;;;10.73;7.45;;;;;;;2.59;78.69;96035.03;5030953;28;20033;-82
2021/12/17 07:46:47;;;;;;;11.65;7.60;;;;;;;2.66;78.44;96051.28;5009313;28;20022;-80
2021/12/17 07:49:13;;;;;;;10.50;7.32;;;;;;;2.66;78.22;96045.16;5026086;28;20025;-80
2021/12/17 07:51:38;;;;;;;10.48;7.70;;;;;;;2.52;78.93;96044.38;5026498;28;20036;-80
2021/12/17 07:54:04;;;;;;;12.57;8.02;;;;;;;2.53;79.29;96046.03;5026366;28;20052;-80
2021/12/17 07:56:37;;;;;;;11.35;8.63;;;;;;;2.57;78.88;96041.38;5026052;28;20075;-78
2021/12/17 07:59:06;;;;;;;11.40;8.57;;;;;;;2.67;78.70;96047.72;5026471;28;20040;-80
2021/12/17 08:01:32;;;;;;;14.15;8.55;;;;;;;2.67;79.28;96052.16;5008238;28;20094;-79
2021/12/17 08:03:57;;;;;;;12.40;8.77;;;;;;;2.59;78.95;96050.91;5008857;28;20022;-80
2021/12/17 08:06:23;;;;;;;14.63;9.75;;;;;;;2.64;79.15;96047.94;4991866;28;20026;-80
2021/12/17 08:08:48;;;;;;;13.77;9.68;;;;;;;2.71;78.65;96051.81;5008760;28;20036;-79
2021/12/17 08:11:14;;;;;;;14.50;9.63;;;;;;;2.72;78.69;96060.63;5025594;28;20075;-80
2021/12/17 08:13:41;;;;;;;16.30;10.93;;;;;;;2.73;78.90;96057.00;5025904;28;20152;-78
2021/12/17 08:32:07;;;;;;;14.55;9.77;;;;;;;3.14;77.32;96033.69;5029581;28;20029;-78
2021/12/17 08:34:33;;;;;;;14.15;9.50;;;;;;;3.17;77.60;96035.25;5013167;28;20045;-80
2021/12/17 08:36:58;;;;;;;15.05;10.32;;;;;;;3.19;76.70;96025.38;5011827;28;20033;-80
2021/12/17 08:39:25;;;;;;;16.38;10.32;;;;;;;3.21;77.01;96034.91;5029521;28;20030;-79
2021/12/17 08:41:52;;;;;;;15.63;10.52;;;;;;;3.23;77.24;96029.47;5012006;28;20037;-79
2021/12/17 08:44:18;;;;;;;17.63;10.40;;;;;;;3.30;76.18;96020.13;5011900;28;20029;-82
2021/12/17 08:46:43;;;;;;;13.27;9.15;;;;;;;3.36;76.43;96010.81;4995857;28;20029;-80
2021/12/17 08:49:09;;;;;;;13.77;9.25;;;;;;;3.36;76.47;96009.97;5029256;28;20033;-81
2021/12/17 08:51:35;;;;;;;14.02;9.00;;;;;;;3.47;76.13;96010.00;5029991;28;20029;-80
2021/12/17 08:54:01;;;;;;;12.10;7.97;;;;;;;3.48;75.90;96003.75;5029191;28;20029;-79
2021/12/17 08:56:30;;;;;;;10.05;7.45;;;;;;;3.44;76.24;96004.94;5011727;28;20369;-81
2021/12/17 08:58:56;;;;;;;9.55;7.20;;;;;;;3.46;75.94;96003.00;5011953;28;20097;-78
2021/12/17 09:01:21;;;;;;;10.93;7.85;;;;;;;3.47;76.20;95996.72;4994720;28;20076;-79
2021/12/17 09:03:47;;;;;;;9.48;6.80;;;;;;;3.52;75.76;95997.22;5029578;28;20079;-79
2021/12/17 09:06:15;;;;;;;8.48;6.68;;;;;;;3.52;76.15;95999.03;5011238;28;20044;-80
2021/12/17 09:08:41;;;;;;;9.30;6.88;;;;;;;3.58;75.95;95983.47;5029869;28;20496;-80
2021/12/17 09:11:06;;;;;;;11.90;6.82;;;;;;;3.55;76.04;95982.88;5011339;28;20037;-81
2021/12/17 09:13:32;;;;;;;11.82;6.95;;;;;;;3.53;76.72;95983.00;5011691;28;20125;-81
2021/12/17 09:15:59;;;;;;;8.18;5.95;;;;;;;3.55;76.60;95982.88;5029485;28;20450;-80
2021/12/17 09:18:25;;;;;;;8.65;6.18;;;;;;;3.58;76.70;95979.97;5028828;28;20026;-78
2021/12/17 09:20:50;;;;;;;8.32;6.05;;;;;;;3.57;76.43;95978.31;5029390;28;20534;-80
2021/12/17 09:23:16;;;;;;;8.85;5.90;;;;;;;3.57;76.34;95981.81;5028807;28;20029;-81
2021/12/17 09:25:41;;;;;;;7.03;5.70;;;;;;;3.64;76.23;95976.03;5029292;28;20091;-80
2021/12/17 09:28:06;;;;;;;10.45;7.07;;;;;;;3.69;75.78;95979.16;5028693;28;20514;-81
2021/12/17 09:30:32;;;;;;;10.48;7.00;;;;;;;3.68;75.92;95977.44;5029110;28;20021;-80
2021/12/17 09:32:57;;;;;;;8.57;5.93;;;;;;;3.73;75.16;95988.56;5010610;28;20039;-81
2021/12/17 09:35:24;;;;;;;7.90;5.97;;;;;;;3.76;75.77;95964.44;5027882;28;20074;-80
2021/12/17 09:37:50;;;;;;;7.30;5.47;;;;;;;3.70;75.61;95960.47;5011316;28;20057;-79
2021/12/17 09:40:15;;;;;;;9.25;6.10;;;;;;;3.74;75.64;95945.13;5010865;28;20714;-79
2021/12/17 09:42:44;;;;;;;7.55;5.22;;;;;;;3.70;75.30;95939.25;5028760;28;20025;-80
2021/12/17 09:45:10;;;;;;;7.13;5.82;;;;;;;3.91;75.10;95929.69;5028328;28;20594;-80
2021/12/17 09:47:35;;;;;;;8.30;5.35;;;;;;;4.08;74.25;95923.84;5028733;28;20026;-81
2021/12/17 09:50:01;;;;;;;7.72;5.55;;;;;;;4.13;74.62;95933.25;5010647;28;20037;-82
2021/12/17 09:52:26;;;;;;;8.18;6.20;;;;;;;4.17;74.61;95930.25;5028936;28;20099;-80
2021/12/17 09:54:52;;;;;;;9.25;5.97;;;;;;;4.28;73.56;95931.16;5028094;28;20057;-80
2021/12/17 09:57:19;;;;;;;8.20;6.20;;;;;;;4.24;73.42;95930.56;5028529;28;20025;-80
2021/12/17 09:59:44;;;;;;;8.02;6.13;;;;;;;4.22;74.15;95918.38;5010772;28;20078;-81
2021/12/17 10:02:10;;;;;;;7.03;5.60;;;;;;;4.20;73.95;95926.47;5027883;28;20486;-80
2021/12/17 10:04:36;;;;;;;7.10;5.70;;;;;;;4.17;74.50;95911.66;5010730;28;20523;-79
2021/12/17 10:07:21;;;;;;;7.97;5.70;;;;;;;4.19;74.12;95908.88;5009938;28;20038;-79
2021/12/17 10:09:51;;;;;;;7.30;5.55;;;;;;;4.23;73.95;95899.69;5028420;28;20030;-79
2021/12/17 10:12:16;;;;;;;7.45;5.70;;;;;;;4.19;73.82;95895.59;5010582;28;20064;-80
2021/12/17 10:14:43;;;;;;;9.55;6.97;;;;;;;3.99;74.57;95891.91;4993693;28;20034;-80
2021/12/17 10:17:12;;;;;;;7.82;6.35;;;;;;;4.14;74.08;95893.31;5010445;28;20038;-80
2021/12/17 10:19:43;;;;;;;9.10;6.60;;;;;;;4.14;74.18;95884.50;5009962;28;20111;-79
2021/12/17 10:22:12;;;;;;;7.72;6.50;;;;;;;4.21;74.15;95872.41;5028296;28;20029;-81
2021/12/17 10:24:41;;;;;;;9.25;6.28;;;;;;;4.17;74.67;95877.13;5009842;28;20018;-80
2021/12/17 10:27:25;;;;;;;8.15;6.55;;;;;;;4.19;73.67;95869.06;5011270;28;20017;-81
2021/12/17 10:29:51;;;;;;;9.18;6.05;;;;;;;4.25;73.82;95865.88;5010113;28;20033;-80
2021/12/17 10:32:24;;;;;;;7.10;5.93;;;;;;;4.29;73.65;95863.78;5009664;28;20025;-80
2021/12/17 10:35:12;;;;;;;8.52;5.85;;;;;;;4.31;73.16;95837.97;5009898;28;20037;-81
2021/12/17 10:37:45;;;;;;;5.75;4.90;;;;;;;4.36;72.47;95829.59;5027540;28;20048;-80
2021/12/17 10:40:39;;;;;;;7.25;5.22;;;;;;;4.34;73.09;95829.75;5010201;28;20844;-80
2021/12/17 10:43:13;;;;;;;7.70;5.57;;;;;;;4.35;72.81;95831.44;5028051;28;20665;-81
2021/12/17 10:45:43;;;;;;;7.20;5.65;;;;;;;4.38;72.59;95823.22;5010047;28;20033;-82
2021/12/17 10:51:18;;;;;;;8.13;5.93;;;;;;;4.44;72.95;95840.44;5027098;28;20044;-81
2021/12/17 10:54:04;;;;;;;7.55;5.88;;;;;;;4.24;72.20;95840.28;5027481;28;20029;-82
2021/12/17 10:56:32;;;;;;;8.27;6.32;;;;;;;4.16;73.37;95845.41;5010032;28;20108;-80
2021/12/17 10:59:08;;;;;;;7.25;6.07;;;;;;;4.28;73.33;95841.72;5009268;28;20041;-80
2021/12/17 11:01:35;;;;;;;7.07;5.88;;;;;;;4.32;73.28;95843.16;5010028;28;20017;-78
2021/12/17 11:04:28;;;;;;;7.85;5.90;;;;;;;4.29;73.15;95843.41;5026828;28;20029;-79
2021/12/17 11:07:04;;;;;;;7.40;5.80;;;;;;;4.25;74.13;95820.75;4988391;28;20168;-79
2021/12/17 11:09:49;;;;;;;10.00;6.53;;;;;;;4.16;75.35;95832.13;5009720;28;20117;-81
2021/12/17 11:12:30;;;;;;;8.90;6.55;;;;;;;4.13;75.58;95824.41;5026681;28;20430;-80
2021/12/17 11:15:19;;;;;;;7.97;5.68;;;;;;;4.01;76.52;95824.47;5027384;28;20025;-79
2021/12/17 11:17:51;;;;;;;8.23;6.20;;;;;;;4.09;76.35;95821.19;5027616;28;20472;-80
2021/12/17 11:20:29;;;;;;;7.40;5.72;;;;;;;4.15;75.23;95807.38;5008992;28;20033;-79
2021/12/17 11:22:55;;;;;;;9.70;6.78;;;;;;;4.20;75.01;95818.47;4993478;28;20559;-79
2021/12/17 11:25:21;;;;;;;10.18;7.03;;;;;;;4.21;75.84;95808.69;5008894;28;20415;-80
2021/12/17 11:27:47;;;;;;;8.98;6.47;;;;;;;4.28;74.99;95798.38;5027138;28;20029;-79
2021/12/17 11:30:16;;;;;;;6.95;5.93;;;;;;;4.36;75.14;95795.09;5008733;28;20032;-80
2021/12/17 11:32:42;;;;;;;7.50;5.72;;;;;;;4.31;74.33;95798.13;5026534;28;20079;-80
2021/12/17 11:35:08;;;;;;;6.40;4.85;;;;;;;4.31;74.58;95788.34;4992650;28;20025;-79
2021/12/17 11:37:33;;;;;;;7.72;4.85;;;;;;;4.36;72.48;95784.47;5008598;28;20496;-79
2021/12/17 11:40:05;;;;;;;5.90;4.70;;;;;;;4.27;72.58;95784.25;4992865;28;20022;-79
2021/12/17 11:42:59;;;;;;;7.05;5.10;;;;;;;4.17;73.36;95781.56;5026290;28;20086;-84
2021/12/17 11:45:25;;;;;;;6.45;4.50;;;;;;;4.01;74.79;95776.69;5008884;28;20506;-80
2021/12/17 11:47:52;;;;;;;7.28;5.32;;;;;;;3.88;75.13;95783.97;4993120;28;20051;-80
2021/12/17 11:50:18;;;;;;;6.82;4.95;;;;;;;3.94;75.26;95776.34;5025856;28;20030;-80
2021/12/17 11:52:44;;;;;;;7.13;5.10;;;;;;;3.96;74.90;95776.22;5009116;28;20025;-82
2021/12/17 11:55:35;;;;;;;7.05;4.72;;;;;;;3.83;74.82;95773.75;5025969;28;20029;-80
2021/12/17 11:58:10;;;;;;;5.45;4.00;;;;;;;3.82;74.72;95772.06;5008448;28;20026;-79
2021/12/17 12:00:41;;;;;;;5.82;4.00;;;;;;;3.79;74.79;95773.16;5009224;28;20029;-80
2021/12/17 12:03:23;;;;;;;6.75;4.13;;;;;;;3.69;74.92;95761.63;5008257;28;20034;-80
2021/12/17 12:06:00;;;;;;;7.10;4.03;;;;;;;3.73;74.86;95773.66;5009035;28;20084;-81
2021/12/17 12:08:47;;;;;;;5.65;4.00;;;;;;;3.63;74.79;95756.81;5009121;28;20412;-80
2021/12/17 12:11:25;;;;;;;4.93;3.50;;;;;;;3.61;74.68;95754.25;4978273;28;20495;-80
2021/12/17 12:13:52;;;;;;;4.10;3.00;;;;;;;3.54;74.99;95746.00;5026360;28;20033;-79
2021/12/17 12:16:25;;;;;;;4.25;3.10;;;;;;;3.49;75.05;95732.25;5025428;28;20045;-79
2021/12/17 12:18:51;;;;;;;5.57;3.65;;;;;;;3.53;75.01;95720.41;5009243;28;20037;-81
2021/12/17 12:21:18;;;;;;;5.85;3.90;;;;;;;3.56;74.19;95725.47;5008048;28;20037;-80
2021/12/17 12:23:45;;;;;;;5.30;4.00;;;;;;;3.54;73.91;95715.97;5008678;28;20026;-79
2021/12/17 12:26:17;;;;;;;6.22;4.07;;;;;;;3.63;73.07;95703.75;5007848;28;20037;-79
2021/12/17 12:28:48;;;;;;;5.72;4.20;;;;;;;3.57;72.55;95711.25;5008303;28;20025;-81
2021/12/17 12:31:17;;;;;;;5.57;4.10;;;;;;;3.60;72.38;95696.88;5025981;28;20487;-80
2021/12/17 12:34:04;;;;;;;5.40;4.22;;;;;;;3.60;71.61;95707.50;5025793;28;20045;-81
2021/12/17 12:36:53;;;;;;;5.43;3.95;;;;;;;3.44;71.88;95689.34;5008302;28;20033;-80
2021/12/17 12:39:38;;;;;;;5.97;3.90;;;;;;;3.43;71.47;95685.84;5025458;28;20385;-80
2021/12/17 12:42:25;;;;;;;5.53;3.97;;;;;;;3.44;71.68;95670.78;5025714;28;20114;-81
2021/12/17 12:44:50;;;;;;;4.97;3.53;;;;;;;3.37;71.10;95682.88;5008391;28;20096;-80
2021/12/17 12:47:31;;;;;;;4.93;3.65;;;;;;;3.29;71.31;95676.38;5025463;28;20075;-81
2021/12/17 12:50:02;;;;;;;4.03;3.17;;;;;;;3.30;70.82;95672.78;5026186;28;20021;-81
2021/12/17 12:52:45;;;;;;;4.65;3.05;;;;;;;3.23;70.87;95674.25;5025499;28;20488;-79
2021/12/17 12:55:11;;;;;;;4.50;3.38;;;;;;;3.24;70.81;95689.16;5025499;28;20033;-80
2021/12/17 12:58:03;;;;;;;4.25;2.95;;;;;;;3.19;70.88;95680.78;5025797;28;20025;-80
2021/12/17 13:00:31;;;;;;;5.45;3.30;;;;;;;3.18;70.75;95679.06;5007470;28;20025;-81
2021/12/17 13:03:03;;;;;;;4.50;3.60;;;;;;;3.17;70.76;95688.00;5008794;28;20038;-81
2021/12/17 13:05:29;;;;;;;5.70;3.43;;;;;;;3.17;70.54;95691.50;5025462;28;20025;-79
2021/12/17 13:07:55;;;;;;;4.93;3.60;;;;;;;3.19;70.62;95691.38;5007843;28;20087;-79
2021/12/17 13:10:25;;;;;;;4.13;3.30;;;;;;;3.21;70.18;95678.81;5028037;28;20497;-79
2021/12/17 13:12:55;;;;;;;4.05;3.25;;;;;;;3.41;70.09;95679.84;5011086;28;20081;-82
2021/12/17 13:15:39;;;;;;;4.60;3.63;;;;;;;3.53;69.63;95679.81;5029307;28;20041;-81
2021/12/17 13:23:38;;;;;;;5.00;3.63;;;;;;;3.43;68.79;95698.28;5000703;28;20106;-79
2021/12/17 13:26:06;;;;;;;9.15;4.95;;;;;;;3.44;69.18;95684.91;5012302;28;20040;-80
2021/12/17 13:28:55;;;;;;;7.00;4.20;;;;;;;3.45;68.51;95701.66;5029366;28;20040;-81
2021/12/17 13:31:39;;;;;;;6.57;4.10;;;;;;;3.57;67.49;95678.56;5011640;28;20112;-81
2021/12/17 13:34:08;;;;;;;6.50;4.18;;;;;;;3.57;67.65;95690.03;5028796;28;20372;-79
2021/12/17 13:36:34;;;;;;;4.32;3.65;;;;;;;3.57;67.15;95698.00;5017532;28;20037;-79
2021/12/17 13:38:59;;;;;;;7.50;4.03;;;;;;;3.54;67.22;95694.75;5033339;28;20075;-81
2021/12/17 13:41:36;;;;;;;4.72;3.53;;;;;;;3.50;67.70;95699.44;5001604;28;20022;-81
2021/12/17 13:44:02;;;;;;;6.13;3.92;;;;;;;3.43;67.26;95682.38;5033228;28;20417;-81
2021/12/17 13:46:27;;;;;;;6.97;4.55;;;;;;;3.36;68.29;95697.09;5030191;28;20129;-81
2021/12/17 13:48:53;;;;;;;5.63;4.53;;;;;;;3.30;68.51;95678.09;4979336;28;20036;-82
2021/12/17 13:51:19;;;;;;;5.82;4.65;;;;;;;3.22;68.38;95680.53;5029438;28;20025;-80
2021/12/17 13:53:44;;;;;;;6.22;4.40;;;;;;;3.21;68.82;95684.97;5011407;28;20033;-80
2021/12/17 13:56:17;;;;;;;6.07;4.50;;;;;;;3.25;68.69;95687.38;4994530;28;20029;-80
2021/12/17 13:58:42;;;;;;;6.72;4.75;;;;;;;3.15;68.39;95687.28;5021065;28;20087;-81
2021/12/17 14:01:08;;;;;;;6.50;4.63;;;;;;;3.14;69.18;95685.59;5009333;28;20594;-81
2021/12/17 14:03:35;;;;;;;6.35;4.35;;;;;;;3.13;68.90;95662.72;4994452;28;20091;-80
2021/12/17 14:06:22;;;;;;;5.65;3.78;;;;;;;3.06;69.12;95676.44;5010632;28;20018;-80
2021/12/17 14:08:47;;;;;;;6.20;4.45;;;;;;;3.06;69.66;95691.53;5010420;28;20100;-80
2021/12/17 14:11:31;;;;;;;6.85;4.80;;;;;;;3.07;69.14;95687.91;5011012;28;20025;-81
2021/12/17 14:13:56;;;;;;;5.07;4.00;;;;;;;3.05;69.05;95681.88;5011235;28;20073;-79
2021/12/17 14:16:33;;;;;;;5.80;4.38;;;;;;;3.05;68.90;95689.81;4994541;28;20476;-80
2021/12/17 14:18:59;;;;;;;6.20;4.30;;;;;;;3.02;68.84;95685.63;5022446;28;20025;-80
2021/12/17 14:21:29;;;;;;;5.78;4.25;;;;;;;2.93;69.02;95710.22;4989595;28;21116;-77
2021/12/17 14:23:54;;;;;;;5.40;4.43;;;;;;;2.88;69.68;95691.19;5004855;28;20083;-79
2021/12/17 14:26:26;;;;;;;6.32;4.55;;;;;;;2.81;70.41;95706.72;5009939;28;20057;-79
2021/12/17 14:28:51;;;;;;;6.00;4.50;;;;;;;2.66;70.98;95717.56;4993897;28;20305;-80
2021/12/17 14:31:18;;;;;;;6.43;4.45;;;;;;;2.67;71.66;95710.47;5007145;28;20488;-80
2021/12/17 14:33:49;;;;;;;7.60;5.05;;;;;;;2.58;72.01;95704.06;5017237;28;20026;-79
2021/12/17 14:36:36;;;;;;;7.53;5.20;;;;;;;2.52;72.42;95700.13;5018838;28;20025;-79
2021/12/17 14:39:10;;;;;;;8.20;5.15;;;;;;;2.48;72.92;95698.69;5027274;28;20029;-80
2021/12/17 14:41:43;;;;;;;6.18;4.90;;;;;;;2.39;72.72;95715.25;5027706;28;20457;-79
2021/12/17 14:44:22;;;;;;;7.43;5.30;;;;;;;2.40;71.92;95712.50;4985683;28;20041;-80
2021/12/17 14:46:56;;;;;;;9.23;5.20;;;;;;;2.41;72.07;95713.34;5003021;28;20029;-75
2021/12/17 15:03:19;;;;;;;7.22;5.28;;;;;;;2.32;72.25;95742.22;5011790;28;20487;-77
2021/12/17 15:05:45;;;;;;;8.80;6.05;;;;;;;2.26;72.40;95740.03;5012576;28;20021;-77
2021/12/17 15:08:10;;;;;;;6.95;5.63;;;;;;;2.32;72.38;95741.41;5027133;28;20472;-77